Lyttleville, Illinois
Current Conditions -  °F | °C
As of 12:56 AM on Wednesday 22 Oct 2014 (Local Time) from KBMI Reporting Station
Clear Clear  
Wind Chill: 34°   Ceiling: Unl
Heat Index: 38°   Visibility: 10mi
Dew Point: 36°   Wind: 5mph
Humidity: 93%   Direction: 70°ENE
Pressure: 30.26"   Gusts: NA
Location:  40.3419°N, 88.9792°W
Report Text: KBMI 220556Z AUTO 07004KT 10SM CLR 03/02 A3026 RMK AO2 51003 T00330022 10094 20033 401550033 SLP252
Loading
Personal Weather Stations






























Interactive Weather Map
Tropical Storm Tracking
New forecast layout! Learn more

10-Day Weather Forecast

Advertisements
Track Severe Weather on mobile